createdAt,value
2023-03-12T00:00:28.282Z,12.85
2023-03-12T00:01:33.201Z,11.98
2023-03-12T00:02:36.548Z,10.70
2023-03-12T00:03:40.374Z,11.30
2023-03-12T00:04:43.538Z,11.93
2023-03-12T00:05:45.699Z,13.10
2023-03-12T00:06:48.952Z,12.30
2023-03-12T00:07:51.604Z,13.75
2023-03-12T00:08:56.336Z,11.75
2023-03-12T00:09:58.744Z,11.93
2023-03-12T00:11:01.764Z,11.40
2023-03-12T00:12:04.375Z,12.57
2023-03-12T00:13:09.699Z,12.07
2023-03-12T00:14:11.949Z,12.20
2023-03-12T00:15:15.320Z,12.55
2023-03-12T00:16:17.451Z,12.05
2023-03-12T00:17:20.791Z,11.10
2023-03-12T00:18:22.969Z,13.45
2023-03-12T00:19:26.822Z,13.00
2023-03-12T00:20:28.881Z,13.60
2023-03-12T00:21:32.231Z,12.23
2023-03-12T00:22:34.553Z,13.73
2023-03-12T00:23:38.182Z,11.73
2023-03-12T00:24:40.273Z,11.80
2023-03-12T00:25:45.541Z,12.80
2023-03-12T00:26:48.962Z,12.38
2023-03-12T00:27:52.151Z,12.65
2023-03-12T00:28:55.793Z,11.18
2023-03-12T00:29:59.010Z,11.73
2023-03-12T00:31:01.981Z,14.52
2023-03-12T00:32:05.250Z,13.05
2023-03-12T00:33:07.401Z,13.25
2023-03-12T00:34:10.951Z,13.45
2023-03-12T00:35:13.126Z,12.82
2023-03-12T00:36:16.823Z,13.07
2023-03-12T00:37:19.068Z,11.85
2023-03-12T00:38:22.382Z,13.65
2023-03-12T00:39:24.635Z,12.73
2023-03-12T00:40:28.016Z,13.15
2023-03-12T00:41:30.538Z,12.25
2023-03-12T00:42:34.131Z,12.75
2023-03-12T00:43:36.678Z,11.43
2023-03-12T00:44:41.501Z,13.73
2023-03-12T00:45:43.649Z,15.43
2023-03-12T00:46:47.021Z,15.57
2023-03-12T00:47:49.351Z,12.68
2023-03-12T00:48:52.642Z,14.15
2023-03-12T00:49:54.691Z,13.38
2023-03-12T00:50:57.904Z,13.50
2023-03-12T00:52:00.025Z,13.95
2023-03-12T00:53:03.301Z,15.32
2023-03-12T00:54:05.700Z,14.38
2023-03-12T00:55:09.724Z,17.10
2023-03-12T00:56:11.894Z,16.60
2023-03-12T00:57:15.096Z,16.48
2023-03-12T00:58:17.152Z,14.70
2023-03-12T00:59:20.555Z,13.40
2023-03-12T01:00:24.337Z,13.98
2023-03-12T01:01:27.815Z,14.02
2023-03-12T01:02:29.829Z,13.55
2023-03-12T01:03:32.947Z,12.88
2023-03-12T01:04:35.234Z,12.23
2023-03-12T01:05:40.815Z,11.75
2023-03-12T01:06:43.042Z,11.55
2023-03-12T01:07:46.219Z,12.18
2023-03-12T01:08:48.267Z,12.38
2023-03-12T01:09:51.473Z,9.95
2023-03-12T01:10:54.660Z,10.23
2023-03-12T01:11:56.731Z,8.73
2023-03-12T01:13:00.344Z,8.93
2023-03-12T01:14:04.685Z,8.38
2023-03-12T01:15:08.775Z,9.55
2023-03-12T01:16:12.470Z,9.60
2023-03-12T01:17:15.717Z,9.68
2023-03-12T01:18:18.159Z,9.95
2023-03-12T01:19:21.538Z,9.60
2023-03-12T01:20:23.754Z,9.85
2023-03-12T01:21:28.199Z,8.65
2023-03-12T01:22:30.436Z,9.10
2023-03-12T01:23:34.015Z,10.20
2023-03-12T01:24:36.057Z,9.75
2023-03-12T01:25:39.496Z,9.95
2023-03-12T01:26:41.635Z,10.90
2023-03-12T01:27:44.785Z,10.35
2023-03-12T01:28:47.082Z,10.05
2023-03-12T01:29:50.563Z,10.23
2023-03-12T01:30:53.504Z,10.23
2023-03-12T01:31:58.729Z,9.35
2023-03-12T01:33:00.817Z,9.10
2023-03-12T01:34:04.135Z,9.68
2023-03-12T01:35:07.565Z,10.25
2023-03-12T01:36:18.023Z,9.82
2023-03-12T01:37:20.301Z,9.48
2023-03-12T01:38:23.450Z,9.40
2023-03-12T01:39:25.877Z,9.18
2023-03-12T01:40:29.354Z,8.88
2023-03-12T01:41:34.131Z,8.20
2023-03-12T01:42:37.456Z,7.80
2023-03-12T01:43:40.635Z,7.85
2023-03-12T01:44:54.853Z,8.43
2023-03-12T01:46:10.386Z,7.82
2023-03-12T01:47:15.098Z,7.95
2023-03-12T01:48:19.345Z,7.30
2023-03-12T01:49:26.917Z,7.18
2023-03-12T01:50:30.038Z,7.28
2023-03-12T01:51:37.732Z,7.35
2023-03-12T01:52:40.111Z,6.53
2023-03-12T01:53:46.115Z,6.88
2023-03-12T01:54:52.850Z,5.75
2023-03-12T01:55:56.175Z,6.60
2023-03-12T01:57:00.469Z,6.68
2023-03-12T01:58:03.279Z,6.93
2023-03-12T01:59:11.830Z,8.70
2023-03-12T02:00:17.056Z,6.70
2023-03-12T02:01:21.336Z,7.57
2023-03-12T02:02:28.754Z,7.28
2023-03-12T02:03:33.853Z,7.75
2023-03-12T02:04:37.267Z,7.00
2023-03-12T02:05:47.614Z,7.55
2023-03-12T02:06:58.913Z,6.57
2023-03-12T02:08:02.114Z,7.45
2023-03-12T02:09:08.402Z,6.90
2023-03-12T02:10:11.998Z,6.75
2023-03-12T02:11:15.316Z,6.55
2023-03-12T02:12:18.920Z,7.65
2023-03-12T02:13:21.483Z,7.93
2023-03-12T02:14:24.674Z,6.40
2023-03-12T02:15:27.890Z,6.60
2023-03-12T02:16:31.606Z,6.68
2023-03-12T02:17:36.322Z,6.05
2023-03-12T02:18:40.037Z,5.47
2023-03-12T02:19:49.232Z,5.60
2023-03-12T02:21:00.288Z,6.07
2023-03-12T02:22:03.195Z,4.90
2023-03-12T02:23:10.296Z,5.30
2023-03-12T02:24:22.416Z,5.20
2023-03-12T02:25:34.767Z,5.55
2023-03-12T02:26:39.787Z,4.80
2023-03-12T02:27:42.896Z,4.40
2023-03-12T02:28:47.228Z,4.85
2023-03-12T02:29:49.798Z,4.55
2023-03-12T02:30:58.573Z,4.75
2023-03-12T02:32:04.307Z,4.50
2023-03-12T02:33:09.535Z,4.53
2023-03-12T02:34:11.744Z,4.70
2023-03-12T02:35:15.448Z,4.30
2023-03-12T02:36:17.828Z,4.82
2023-03-12T02:37:21.927Z,4.90
2023-03-12T02:38:36.556Z,4.30
2023-03-12T02:39:42.585Z,4.45
2023-03-12T02:40:48.575Z,4.57
2023-03-12T02:41:54.584Z,4.00
2023-03-12T02:42:58.140Z,4.43
2023-03-12T02:44:06.453Z,4.03
2023-03-12T02:45:09.877Z,4.28
2023-03-12T02:46:14.073Z,4.47
2023-03-12T02:47:17.224Z,3.90
2023-03-12T02:48:19.420Z,3.80
2023-03-12T02:49:24.221Z,3.75
2023-03-12T02:50:26.368Z,4.05
2023-03-12T02:51:29.536Z,4.53
2023-03-12T02:52:35.664Z,3.78
2023-03-12T02:53:38.981Z,4.05
2023-03-12T02:54:42.598Z,4.53
2023-03-12T02:55:47.350Z,4.55
2023-03-12T02:56:50.371Z,4.35
2023-03-12T02:57:54.159Z,4.68
2023-03-12T02:58:56.644Z,4.10
2023-03-12T03:00:00.667Z,4.00
2023-03-12T03:01:05.012Z,4.97
2023-03-12T03:02:09.693Z,4.93
2023-03-12T03:03:11.792Z,5.15
2023-03-12T03:04:15.491Z,4.85
2023-03-12T03:05:17.954Z,4.50
2023-03-12T03:06:21.426Z,4.30
2023-03-12T03:07:23.595Z,4.28
2023-03-12T03:08:26.728Z,3.90
2023-03-12T03:09:29.188Z,4.25
2023-03-12T03:10:32.495Z,4.15
2023-03-12T03:11:36.535Z,3.78
2023-03-12T03:12:41.352Z,4.13
2023-03-12T03:13:43.603Z,3.85
2023-03-12T03:14:46.803Z,3.47
2023-03-12T03:15:49.038Z,4.50
2023-03-12T03:16:52.353Z,4.47
2023-03-12T03:17:58.421Z,3.50
2023-03-12T03:19:01.709Z,3.83
2023-03-12T03:20:07.144Z,3.45
2023-03-12T03:21:16.350Z,3.67
2023-03-12T03:22:20.568Z,3.88
2023-03-12T03:23:23.880Z,3.90
2023-03-12T03:24:26.969Z,3.97
2023-03-12T03:25:29.573Z,3.75
2023-03-12T03:26:32.812Z,4.30
2023-03-12T03:27:36.486Z,3.80
2023-03-12T03:28:39.694Z,4.60
2023-03-12T03:29:42.325Z,4.18
2023-03-12T03:30:45.523Z,4.22
2023-03-12T03:31:48.025Z,3.75
2023-03-12T03:32:51.734Z,3.78
2023-03-12T03:33:54.389Z,4.55
2023-03-12T03:34:57.576Z,4.13
2023-03-12T03:36:01.464Z,4.47
2023-03-12T03:37:07.120Z,4.13
2023-03-12T03:38:09.629Z,3.80
2023-03-12T03:39:12.934Z,3.78
2023-03-12T03:40:15.050Z,3.75
2023-03-12T03:41:18.926Z,3.38
2023-03-12T03:42:21.523Z,4.80
2023-03-12T03:43:26.754Z,4.25
2023-03-12T03:44:29.430Z,3.83
2023-03-12T03:45:32.816Z,3.88
2023-03-12T03:46:35.504Z,4.60
2023-03-12T03:47:41.629Z,4.45
2023-03-12T03:48:44.558Z,4.25
2023-03-12T03:49:48.757Z,4.30
2023-03-12T03:50:51.038Z,4.40
2023-03-12T03:51:54.272Z,3.92
2023-03-12T03:53:06.519Z,4.40
2023-03-12T03:54:10.012Z,4.85
2023-03-12T03:55:12.218Z,4.40
2023-03-12T03:56:17.441Z,4.57
2023-03-12T03:57:23.335Z,4.25
2023-03-12T03:58:28.183Z,4.05
2023-03-12T03:59:30.284Z,4.15
2023-03-12T04:00:34.143Z,4.85
2023-03-12T04:01:36.909Z,5.30
2023-03-12T04:02:40.469Z,4.65
2023-03-12T04:03:44.323Z,4.70
2023-03-12T04:04:47.596Z,4.70
2023-03-12T04:05:54.687Z,4.57
2023-03-12T04:06:57.794Z,4.53
2023-03-12T04:08:03.168Z,4.38
2023-03-12T04:09:08.137Z,4.28
2023-03-12T04:10:12.794Z,4.47
2023-03-12T04:11:17.701Z,3.80
2023-03-12T04:12:20.087Z,5.55
2023-03-12T04:13:23.788Z,4.53
2023-03-12T04:14:27.459Z,4.00
2023-03-12T04:15:30.776Z,4.45
2023-03-12T04:16:33.561Z,5.22
2023-03-12T04:17:37.930Z,4.57
2023-03-12T04:18:40.417Z,4.80
2023-03-12T04:19:43.739Z,4.88
2023-03-12T04:20:46.173Z,4.30
2023-03-12T04:21:49.432Z,3.80
2023-03-12T04:22:52.504Z,4.60
2023-03-12T04:23:54.568Z,4.63
2023-03-12T04:25:01.273Z,4.65
2023-03-12T04:26:04.835Z,4.63
2023-03-12T04:27:08.191Z,4.30
2023-03-12T04:28:10.897Z,5.43
2023-03-12T04:29:16.532Z,4.00
2023-03-12T04:30:20.515Z,4.55
2023-03-12T04:31:23.723Z,4.60
2023-03-12T04:32:26.722Z,4.50
2023-03-12T04:33:31.719Z,4.70
2023-03-12T04:34:34.855Z,4.55
2023-03-12T04:35:37.212Z,4.80
2023-03-12T04:36:40.597Z,4.95
2023-03-12T04:37:43.972Z,5.45
2023-03-12T04:38:46.667Z,5.50
2023-03-12T04:39:52.033Z,5.70
2023-03-12T04:41:01.191Z,5.10
2023-03-12T04:42:04.701Z,5.40
2023-03-12T04:43:06.839Z,5.07
2023-03-12T04:44:12.643Z,4.95
2023-03-12T04:45:15.684Z,5.10
2023-03-12T04:46:23.249Z,5.78
2023-03-12T04:47:25.806Z,5.28
2023-03-12T04:48:29.268Z,5.82
2023-03-12T04:49:31.929Z,4.90
2023-03-12T04:50:35.147Z,4.85
2023-03-12T04:51:38.339Z,4.47
2023-03-12T04:52:41.236Z,5.03
2023-03-12T04:53:45.050Z,5.20
2023-03-12T04:54:48.525Z,5.60
2023-03-12T04:55:52.854Z,5.40
2023-03-12T04:56:54.947Z,5.50
2023-03-12T04:57:59.093Z,6.28
2023-03-12T04:59:01.402Z,5.68
2023-03-12T05:00:10.255Z,5.15
2023-03-12T05:01:24.089Z,6.18
2023-03-12T05:02:27.862Z,5.00
2023-03-12T05:03:30.168Z,5.50
2023-03-12T05:04:33.923Z,5.78
2023-03-12T05:05:36.252Z,5.70
2023-03-12T05:06:40.099Z,6.03
2023-03-12T05:07:42.867Z,6.47
2023-03-12T05:08:46.206Z,4.95
2023-03-12T05:09:48.351Z,6.03
2023-03-12T05:10:51.923Z,5.85
2023-03-12T05:11:55.350Z,6.28
2023-03-12T05:12:58.205Z,6.10
2023-03-12T05:14:01.982Z,6.22
2023-03-12T05:15:05.744Z,6.40
2023-03-12T05:16:09.938Z,5.80
2023-03-12T05:17:14.051Z,6.13
2023-03-12T05:18:17.529Z,5.70
2023-03-12T05:19:19.819Z,6.10
2023-03-12T05:20:23.068Z,5.82
2023-03-12T05:21:25.108Z,6.15
2023-03-12T05:22:31.116Z,5.60
2023-03-12T05:23:33.826Z,5.55
2023-03-12T05:24:37.398Z,5.10
2023-03-12T05:25:40.472Z,5.10
2023-03-12T05:26:43.936Z,5.13
2023-03-12T05:27:50.324Z,6.68
2023-03-12T05:28:53.960Z,5.97
2023-03-12T05:29:58.563Z,6.00
2023-03-12T05:31:02.656Z,7.47
2023-03-12T05:32:08.036Z,6.53
2023-03-12T05:33:12.119Z,6.47
2023-03-12T05:34:15.720Z,7.30
2023-03-12T05:35:19.955Z,7.43
2023-03-12T05:36:23.286Z,6.57
2023-03-12T05:37:25.492Z,7.32
2023-03-12T05:38:28.612Z,6.82
2023-03-12T05:39:31.798Z,7.32
2023-03-12T05:40:39.023Z,7.88
2023-03-12T05:41:42.527Z,6.45
2023-03-12T05:42:52.811Z,6.80
2023-03-12T05:43:58.367Z,6.60
2023-03-12T05:45:01.038Z,6.97
2023-03-12T05:46:05.674Z,7.78
2023-03-12T05:47:10.631Z,7.22
2023-03-12T05:48:17.598Z,6.55
2023-03-12T05:49:20.032Z,7.55
2023-03-12T05:50:23.878Z,6.68
2023-03-12T05:51:25.972Z,7.05
2023-03-12T05:52:29.363Z,6.95
2023-03-12T05:53:31.754Z,6.90
2023-03-12T05:54:35.075Z,7.05
2023-03-12T05:55:40.206Z,7.40
2023-03-12T05:56:43.535Z,7.20
2023-03-12T05:57:45.874Z,6.20
2023-03-12T05:58:50.674Z,6.97
2023-03-12T05:59:54.227Z,7.07
2023-03-12T06:00:57.609Z,7.00
2023-03-12T06:01:59.769Z,6.70
2023-03-12T06:03:03.625Z,6.65
2023-03-12T06:04:07.452Z,7.20
2023-03-12T06:05:11.539Z,6.15
2023-03-12T06:06:14.480Z,6.45
2023-03-12T06:07:18.079Z,6.53
2023-03-12T06:08:20.154Z,7.20
2023-03-12T06:09:23.451Z,5.93
2023-03-12T06:10:25.618Z,6.70
2023-03-12T06:11:29.041Z,6.75
2023-03-12T06:12:31.145Z,6.40
2023-03-12T06:13:34.377Z,7.40
2023-03-12T06:14:38.519Z,7.13
2023-03-12T06:15:41.466Z,6.50
2023-03-12T06:16:44.870Z,6.93
2023-03-12T06:17:47.030Z,6.40
2023-03-12T06:18:53.505Z,6.75
2023-03-12T06:19:59.015Z,7.13
2023-03-12T06:21:13.661Z,7.18
2023-03-12T06:22:15.908Z,7.03
2023-03-12T06:23:21.461Z,6.35
2023-03-12T06:24:23.730Z,6.65
2023-03-12T06:25:31.842Z,6.70
2023-03-12T06:26:34.328Z,6.43
2023-03-12T06:27:37.551Z,6.05
2023-03-12T06:28:39.727Z,5.65
2023-03-12T06:29:42.969Z,5.75
2023-03-12T06:30:45.037Z,6.45
2023-03-12T06:31:48.525Z,6.57
2023-03-12T06:32:50.753Z,6.38
2023-03-12T06:33:54.155Z,6.22
2023-03-12T06:35:00.685Z,7.00
2023-03-12T06:36:05.505Z,5.80
2023-03-12T06:37:08.697Z,6.57
2023-03-12T06:38:10.952Z,5.63
2023-03-12T06:39:14.223Z,6.35
2023-03-12T06:40:16.772Z,5.97
2023-03-12T06:41:21.210Z,4.85
2023-03-12T06:42:23.578Z,5.35
2023-03-12T06:43:28.736Z,6.35
2023-03-12T06:44:31.319Z,5.38
2023-03-12T06:45:34.549Z,5.53
2023-03-12T06:46:37.053Z,6.40
2023-03-12T06:47:40.394Z,6.05
2023-03-12T06:48:46.227Z,5.97
2023-03-12T06:49:48.357Z,5.80
2023-03-12T06:50:53.629Z,5.10
2023-03-12T06:51:57.121Z,4.43
2023-03-12T06:53:00.358Z,5.47
2023-03-12T06:54:03.685Z,5.25
2023-03-12T06:55:06.805Z,5.10
2023-03-12T06:56:10.431Z,4.40
2023-03-12T06:57:13.673Z,4.72
2023-03-12T06:58:15.843Z,4.82
2023-03-12T06:59:21.653Z,4.82
2023-03-12T07:00:23.986Z,4.47
2023-03-12T07:01:27.852Z,4.65
2023-03-12T07:02:30.984Z,4.72
2023-03-12T07:03:33.296Z,5.07
2023-03-12T07:04:36.437Z,4.80
2023-03-12T07:05:38.535Z,4.50
2023-03-12T07:06:44.831Z,4.90
2023-03-12T07:07:46.991Z,4.30
2023-03-12T07:08:50.207Z,4.45
2023-03-12T07:09:52.419Z,3.83
2023-03-12T07:10:55.697Z,3.75
2023-03-12T07:11:58.838Z,4.18
2023-03-12T07:13:00.979Z,3.55
2023-03-12T07:14:04.156Z,3.80
2023-03-12T07:15:07.370Z,4.30
2023-03-12T07:16:10.687Z,4.28
2023-03-12T07:17:12.769Z,4.25
2023-03-12T07:18:16.131Z,4.50
2023-03-12T07:19:19.609Z,3.92
2023-03-12T07:20:22.830Z,3.60
2023-03-12T07:21:24.898Z,3.75
2023-03-12T07:22:29.669Z,4.20
2023-03-12T07:23:31.884Z,3.83
2023-03-12T07:24:35.034Z,3.75
2023-03-12T07:25:37.513Z,3.95
2023-03-12T07:26:40.890Z,3.58
2023-03-12T07:27:43.066Z,3.83
2023-03-12T07:28:46.319Z,4.47
2023-03-12T07:29:48.452Z,3.00
2023-03-12T07:30:51.789Z,3.50
2023-03-12T07:31:53.878Z,3.40
2023-03-12T07:32:57.124Z,3.20
2023-03-12T07:33:59.429Z,3.50
2023-03-12T07:35:02.647Z,3.47
2023-03-12T07:36:06.652Z,3.63
2023-03-12T07:37:08.828Z,3.65
2023-03-12T07:38:13.461Z,3.75
2023-03-12T07:39:15.521Z,3.50
2023-03-12T07:40:19.074Z,4.03
2023-03-12T07:41:22.251Z,3.65
2023-03-12T07:42:24.791Z,3.45
2023-03-12T07:43:28.739Z,3.58
2023-03-12T07:44:30.766Z,3.53
2023-03-12T07:45:33.996Z,4.15
2023-03-12T07:46:36.415Z,3.40
2023-03-12T07:47:39.626Z,2.90
2023-03-12T07:48:44.341Z,3.60
2023-03-12T07:49:47.058Z,3.25
2023-03-12T07:50:50.831Z,3.35
2023-03-12T07:51:53.217Z,3.50
2023-03-12T07:52:56.477Z,3.00
2023-03-12T07:54:01.184Z,3.28
2023-03-12T07:55:03.944Z,2.95
2023-03-12T07:56:08.416Z,2.85
2023-03-12T07:57:10.729Z,3.03
2023-03-12T07:58:14.296Z,3.00
2023-03-12T07:59:19.856Z,3.10
2023-03-12T08:00:22.413Z,3.28
2023-03-12T08:01:31.942Z,3.03
2023-03-12T08:02:34.759Z,3.00
2023-03-12T08:03:39.063Z,2.80
2023-03-12T08:04:41.591Z,2.65
2023-03-12T08:05:45.481Z,2.97
2023-03-12T08:06:47.818Z,2.50
2023-03-12T08:07:51.327Z,3.08
2023-03-12T08:08:54.821Z,3.08
2023-03-12T08:09:58.415Z,3.35
2023-03-12T08:11:02.949Z,3.30
2023-03-12T08:12:05.703Z,2.65
2023-03-12T08:13:09.179Z,3.08
2023-03-12T08:14:11.456Z,3.20
2023-03-12T08:15:15.185Z,3.35
2023-03-12T08:16:18.603Z,3.22
2023-03-12T08:17:21.049Z,2.88
2023-03-12T08:18:25.012Z,3.03
2023-03-12T08:19:27.969Z,2.58
2023-03-12T08:20:31.387Z,3.17
2023-03-12T08:21:34.137Z,2.60
2023-03-12T08:22:37.512Z,2.78
2023-03-12T08:23:40.717Z,2.30
2023-03-12T08:24:43.192Z,2.35
2023-03-12T08:25:48.683Z,2.42
2023-03-12T08:26:50.860Z,2.45
2023-03-12T08:27:54.265Z,2.70
2023-03-12T08:28:56.465Z,2.30
2023-03-12T08:29:59.674Z,2.45
2023-03-12T08:31:02.285Z,2.70
2023-03-12T08:32:06.047Z,3.05
2023-03-12T08:33:09.408Z,3.10
2023-03-12T08:34:11.512Z,3.90
2023-03-12T08:35:14.721Z,3.30
2023-03-12T08:36:16.859Z,2.85
2023-03-12T08:37:20.083Z,2.80
2023-03-12T08:38:22.764Z,3.20
2023-03-12T08:39:26.083Z,3.05
2023-03-12T08:40:29.425Z,2.65
2023-03-12T08:41:33.054Z,2.03
2023-03-12T08:42:36.327Z,2.60
2023-03-12T08:43:39.612Z,3.08
2023-03-12T08:44:41.778Z,2.80
2023-03-12T08:45:44.943Z,2.55
2023-03-12T08:46:47.603Z,2.95
2023-03-12T08:47:50.752Z,2.15
2023-03-12T08:48:53.948Z,2.95
2023-03-12T08:49:56.298Z,2.42
2023-03-12T08:51:00.798Z,2.50
2023-03-12T08:52:02.850Z,2.40
2023-03-12T08:53:06.003Z,2.50
2023-03-12T08:54:09.188Z,2.80
2023-03-12T08:55:12.878Z,2.92
2023-03-12T08:56:16.117Z,3.72
2023-03-12T08:57:19.749Z,2.58
2023-03-12T08:58:23.149Z,2.55
2023-03-12T08:59:25.290Z,2.95
2023-03-12T09:00:29.362Z,3.10
2023-03-12T09:01:31.562Z,3.03
2023-03-12T09:02:34.885Z,3.03
2023-03-12T09:03:37.126Z,3.00
2023-03-12T09:04:40.318Z,3.33
2023-03-12T09:05:42.797Z,3.40
2023-03-12T09:06:46.424Z,3.50
2023-03-12T09:07:52.690Z,2.83
2023-03-12T09:08:54.758Z,3.72
2023-03-12T09:09:58.078Z,3.38
2023-03-12T09:11:02.301Z,3.80
2023-03-12T09:12:05.301Z,4.05
2023-03-12T09:13:10.014Z,3.30
2023-03-12T09:15:35.219Z,3.72
2023-03-12T09:16:37.464Z,3.40
2023-03-12T09:17:40.934Z,3.38
2023-03-12T09:18:43.128Z,2.80
2023-03-12T09:19:46.442Z,2.83
2023-03-12T09:20:48.469Z,3.05
2023-03-12T09:21:51.643Z,2.75
2023-03-12T09:22:53.937Z,2.92
2023-03-12T09:23:57.703Z,2.97
2023-03-12T09:24:59.908Z,2.70
2023-03-12T09:26:03.636Z,3.10
2023-03-12T09:27:05.868Z,3.15
2023-03-12T09:28:10.508Z,3.28
2023-03-12T09:29:13.694Z,2.88
2023-03-12T09:30:19.066Z,2.40
2023-03-12T09:31:22.327Z,2.22
2023-03-12T09:32:27.501Z,2.60
2023-03-12T09:33:29.793Z,2.53
2023-03-12T09:34:33.018Z,2.35
2023-03-12T09:35:36.458Z,2.25
2023-03-12T09:36:39.751Z,2.83
2023-03-12T09:37:41.908Z,2.80
2023-03-12T09:38:44.963Z,2.30
2023-03-12T09:39:49.050Z,2.55
2023-03-12T09:40:52.671Z,2.47
2023-03-12T09:41:56.152Z,2.50
2023-03-12T09:43:01.343Z,2.58
2023-03-12T09:44:13.661Z,2.67
2023-03-12T09:45:20.295Z,2.60
2023-03-12T09:46:28.168Z,2.55
2023-03-12T09:47:32.090Z,2.90
2023-03-12T09:48:36.942Z,2.60
2023-03-12T09:49:43.278Z,2.90
2023-03-12T09:50:49.123Z,3.45
2023-03-12T09:51:56.921Z,2.97
2023-03-12T09:53:03.139Z,3.22
2023-03-12T09:54:08.863Z,3.35
2023-03-12T09:55:14.952Z,2.78
2023-03-12T09:56:19.970Z,2.63
2023-03-12T09:57:25.435Z,3.15
2023-03-12T09:58:31.603Z,2.88
2023-03-12T09:59:37.065Z,3.13
2023-03-12T10:00:39.420Z,2.85
2023-03-12T10:01:50.269Z,3.08
2023-03-12T10:03:31.951Z,3.20
2023-03-12T10:04:58.220Z,2.65
2023-03-12T10:06:13.063Z,3.10
2023-03-12T10:07:21.891Z,2.95
2023-03-12T10:08:30.485Z,2.45
2023-03-12T10:09:46.956Z,2.92
2023-03-12T10:10:54.964Z,2.67
2023-03-12T10:12:04.130Z,3.05
2023-03-12T10:13:18.567Z,2.67
2023-03-12T10:14:31.331Z,2.30
2023-03-12T10:15:44.909Z,2.70
2023-03-12T10:16:59.332Z,2.63
2023-03-12T10:18:17.777Z,5.47
2023-03-12T10:19:29.175Z,6.88
2023-03-12T10:20:57.430Z,4.68
2023-03-12T10:22:08.698Z,4.45
2023-03-12T10:23:16.744Z,14.50
2023-03-12T10:24:35.764Z,7.10
2023-03-12T10:25:43.445Z,3.50
2023-03-12T10:26:50.352Z,3.85
2023-03-12T10:27:53.753Z,2.88
2023-03-12T10:29:01.602Z,3.00
2023-03-12T10:30:17.645Z,3.40
2023-03-12T10:31:26.601Z,3.03
2023-03-12T10:32:40.224Z,3.72
2023-03-12T10:33:47.634Z,2.72
2023-03-12T10:34:53.917Z,2.67
2023-03-12T10:35:56.681Z,2.72
2023-03-12T10:37:04.273Z,2.72
2023-03-12T10:38:14.430Z,2.60
2023-03-12T10:39:18.990Z,3.15
2023-03-12T10:40:24.392Z,4.10
2023-03-12T10:41:34.555Z,4.00
2023-03-12T10:42:36.968Z,2.92
2023-03-12T10:43:40.146Z,3.50
2023-03-12T10:44:43.345Z,4.75
2023-03-12T10:45:51.624Z,5.50
2023-03-12T10:47:07.783Z,4.10
2023-03-12T10:48:12.657Z,7.50
2023-03-12T10:49:33.465Z,4.95
2023-03-12T10:50:38.012Z,4.78
2023-03-12T10:51:54.774Z,4.13
2023-03-12T10:53:14.580Z,4.25
2023-03-12T10:54:23.879Z,5.28
2023-03-12T10:55:30.465Z,4.65
2023-03-12T10:56:50.566Z,4.82
2023-03-12T10:57:54.525Z,4.68
2023-03-12T10:58:59.915Z,4.55
2023-03-12T11:00:11.987Z,4.25
2023-03-12T11:01:21.966Z,5.65
2023-03-12T11:02:34.569Z,5.78
2023-03-12T11:03:38.127Z,4.30
2023-03-12T11:04:40.333Z,3.60
2023-03-12T11:05:49.619Z,4.53
2023-03-12T11:07:27.788Z,5.03
2023-03-12T11:08:31.580Z,4.47
2023-03-12T11:09:34.875Z,4.93
2023-03-12T11:10:44.697Z,3.92
2023-03-12T11:11:48.265Z,5.80
2023-03-12T11:13:03.298Z,7.53
2023-03-12T11:14:18.500Z,6.80
2023-03-12T11:15:22.227Z,5.43
2023-03-12T11:16:30.790Z,7.20
2023-03-12T11:17:35.678Z,4.57
2023-03-12T11:18:40.438Z,7.47
2023-03-12T11:19:45.424Z,7.40
2023-03-12T11:20:50.211Z,9.32
2023-03-12T11:21:58.989Z,6.60
2023-03-12T11:23:14.779Z,5.80
2023-03-12T11:24:17.916Z,6.72
2023-03-12T11:25:23.161Z,5.13
2023-03-12T11:26:31.753Z,4.20
2023-03-12T11:27:42.893Z,5.32
2023-03-12T11:28:48.327Z,4.55
2023-03-12T11:29:52.350Z,3.50
2023-03-12T11:30:58.098Z,3.70
2023-03-12T11:32:08.013Z,4.30
2023-03-12T11:33:12.595Z,4.80
2023-03-12T11:34:22.466Z,4.20
2023-03-12T11:35:38.874Z,6.47
2023-03-12T11:36:50.501Z,5.50
2023-03-12T11:38:00.807Z,4.22
2023-03-12T11:39:12.440Z,4.97
2023-03-12T11:40:24.948Z,4.20
2023-03-12T11:41:38.231Z,2.55
2023-03-12T11:42:55.464Z,2.90
2023-03-12T11:44:15.202Z,5.45
2023-03-12T11:45:26.092Z,3.65
2023-03-12T11:46:40.809Z,4.38
2023-03-12T11:48:00.502Z,5.35
2023-03-12T11:49:19.285Z,5.57
2023-03-12T11:50:34.717Z,7.35
2023-03-12T11:51:46.457Z,6.55
2023-03-12T11:53:05.271Z,2.83
2023-03-12T11:54:33.704Z,3.38
2023-03-12T11:55:55.051Z,4.43
2023-03-12T11:57:03.242Z,4.03
2023-03-12T11:58:29.616Z,5.45
2023-03-12T11:59:43.605Z,5.00
2023-03-12T12:00:54.937Z,4.72
2023-03-12T12:02:13.055Z,3.70
2023-03-12T12:03:46.878Z,3.08
2023-03-12T12:05:30.896Z,3.40
2023-03-12T12:06:45.309Z,3.00
2023-03-12T12:08:16.482Z,2.30
2023-03-12T12:09:29.034Z,2.38
2023-03-12T12:10:39.239Z,2.22
2023-03-12T12:11:51.223Z,2.28
2023-03-12T12:13:05.680Z,1.90
2023-03-12T12:14:21.493Z,2.22
2023-03-12T12:15:35.620Z,2.30
2023-03-12T12:16:57.459Z,2.25
2023-03-12T12:18:11.038Z,1.92
2023-03-12T12:19:27.579Z,1.90
2023-03-12T12:20:42.315Z,2.15
2023-03-12T12:22:04.170Z,1.85
2023-03-12T12:23:19.694Z,2.03
2023-03-12T12:24:37.456Z,2.20
2023-03-12T12:26:16.480Z,2.17
2023-03-12T12:27:21.516Z,2.00
2023-03-12T12:28:46.337Z,1.80
2023-03-12T12:30:10.956Z,2.45
2023-03-12T12:31:30.212Z,2.15
2023-03-12T12:32:54.330Z,2.20
2023-03-12T12:34:13.370Z,2.20
2023-03-12T12:35:26.728Z,3.00
2023-03-12T12:36:34.034Z,3.13
2023-03-12T12:37:47.655Z,3.85
2023-03-12T12:38:55.756Z,5.38
2023-03-12T12:40:08.896Z,5.93
2023-03-12T12:41:16.622Z,13.23
2023-03-12T12:42:24.986Z,31.40
2023-03-12T12:43:30.094Z,71.95
2023-03-12T12:44:37.597Z,49.08
2023-03-12T12:45:42.094Z,14.93
2023-03-12T12:46:49.188Z,13.00
2023-03-12T12:47:58.141Z,11.00
2023-03-12T12:49:04.478Z,8.48
2023-03-12T12:50:13.638Z,4.68
2023-03-12T12:51:20.664Z,4.30
2023-03-12T12:52:25.616Z,3.95
2023-03-12T12:53:36.201Z,4.22
2023-03-12T12:54:47.218Z,4.13
2023-03-12T12:56:00.103Z,3.90
2023-03-12T12:57:10.506Z,4.20
2023-03-12T12:58:20.170Z,4.68
2023-03-12T12:59:33.474Z,4.25
2023-03-12T13:00:48.723Z,3.88
2023-03-12T13:01:52.449Z,3.65
2023-03-12T13:02:58.307Z,2.90
2023-03-12T13:04:06.890Z,2.50
2023-03-12T13:05:20.258Z,2.47
2023-03-12T13:06:23.320Z,3.25
2023-03-12T13:07:34.360Z,2.78
2023-03-12T13:09:02.858Z,2.95
2023-03-12T13:10:48.724Z,2.85
2023-03-12T13:12:07.664Z,2.90
2023-03-12T13:13:16.337Z,2.40
2023-03-12T13:14:37.982Z,2.90
2023-03-12T13:15:43.829Z,3.10
2023-03-12T13:16:48.010Z,3.17
2023-03-12T13:18:09.722Z,3.40
2023-03-12T13:19:27.852Z,3.30
2023-03-12T13:20:37.430Z,3.10
2023-03-12T13:21:41.414Z,3.63
2023-03-12T13:23:22.606Z,3.10
2023-03-12T13:24:29.947Z,2.85
2023-03-12T13:25:48.898Z,3.30
2023-03-12T13:26:58.236Z,3.35
2023-03-12T13:28:17.362Z,3.47
2023-03-12T13:29:24.296Z,3.60
2023-03-12T13:30:47.166Z,3.17
2023-03-12T13:31:50.722Z,3.22
2023-03-12T13:33:13.036Z,3.13
2023-03-12T13:34:43.098Z,3.00
2023-03-12T13:36:05.049Z,3.20
2023-03-12T13:37:20.635Z,3.00
2023-03-12T13:38:36.582Z,3.40
2023-03-12T13:39:40.096Z,3.55
2023-03-12T13:41:07.306Z,3.13
2023-03-12T13:42:36.232Z,3.50
2023-03-12T13:43:57.483Z,3.90
2023-03-12T13:45:22.420Z,3.60
2023-03-12T13:46:40.609Z,3.40
2023-03-12T13:47:44.144Z,4.00
2023-03-12T13:48:47.682Z,4.47
2023-03-12T13:49:56.059Z,3.78
2023-03-12T13:51:01.596Z,3.63
2023-03-12T13:52:23.578Z,4.35
2023-03-12T13:53:29.372Z,3.47
2023-03-12T13:54:35.065Z,3.40
2023-03-12T13:55:39.430Z,2.75
2023-03-12T13:56:54.052Z,2.90
2023-03-12T13:58:01.120Z,3.60
2023-03-12T13:59:05.924Z,3.13
2023-03-12T14:00:18.437Z,3.22
2023-03-12T14:01:24.306Z,3.13
2023-03-12T14:02:31.077Z,3.35
2023-03-12T14:03:39.938Z,2.95
2023-03-12T14:04:43.922Z,3.08
2023-03-12T14:05:52.793Z,3.28
2023-03-12T14:07:11.747Z,3.70
2023-03-12T14:08:52.791Z,3.03
2023-03-12T14:10:13.084Z,3.63
2023-03-12T14:11:31.376Z,3.08
2023-03-12T14:12:47.307Z,3.13
2023-03-12T14:14:13.946Z,2.72
2023-03-12T14:15:27.989Z,2.67
2023-03-12T14:16:40.112Z,2.70
2023-03-12T14:17:45.457Z,2.60
2023-03-12T14:18:50.318Z,2.72
2023-03-12T14:19:59.342Z,2.63
2023-03-12T14:21:07.462Z,2.80
2023-03-12T14:22:13.669Z,2.85
2023-03-12T14:23:18.612Z,3.10
2023-03-12T14:24:27.269Z,2.90
2023-03-12T14:25:37.707Z,2.92
2023-03-12T14:26:40.100Z,2.60
2023-03-12T14:27:46.560Z,2.97
2023-03-12T14:28:57.218Z,2.70
2023-03-12T14:30:08.107Z,2.75
2023-03-12T14:31:15.113Z,2.65
2023-03-12T14:32:20.763Z,2.60
2023-03-12T14:33:26.018Z,2.13
2023-03-12T14:34:33.150Z,2.60
2023-03-12T14:35:40.536Z,2.70
2023-03-12T14:36:48.049Z,1.88
2023-03-12T14:37:58.551Z,2.30
2023-03-12T14:39:14.105Z,2.33
2023-03-12T14:40:26.921Z,2.60
2023-03-12T14:41:35.815Z,2.22